createdAt,value
2023-11-20T00:00:57.792Z,18.4
2023-11-20T00:02:00.164Z,18.5
2023-11-20T00:03:02.238Z,18.5
2023-11-20T00:04:04.909Z,18.4
2023-11-20T00:05:07.236Z,18.4
2023-11-20T00:06:08.983Z,18.4
2023-11-20T00:07:10.765Z,18.4
2023-11-20T00:08:12.485Z,18.4
2023-11-20T00:09:14.312Z,18.4
2023-11-20T00:10:16.073Z,18.5
2023-11-20T00:11:18.147Z,18.4
2023-11-20T00:12:20.004Z,18.4
2023-11-20T00:13:21.857Z,18.4
2023-11-20T00:14:23.623Z,18.4
2023-11-20T00:15:25.535Z,18.4
2023-11-20T00:16:27.669Z,18.4
2023-11-20T00:17:29.733Z,18.4
2023-11-20T00:18:31.797Z,18.4
2023-11-20T00:19:33.796Z,18.4
2023-11-20T00:20:35.544Z,18.4
2023-11-20T00:21:37.284Z,18.4
2023-11-20T00:22:39.134Z,18.4
2023-11-20T00:23:40.898Z,18.4
2023-11-20T00:24:42.759Z,18.3
2023-11-20T00:25:44.655Z,18.3
2023-11-20T00:26:46.397Z,18.3
2023-11-20T00:27:48.324Z,18.4
2023-11-20T00:28:50.261Z,18.3
2023-11-20T00:29:52.124Z,18.4
2023-11-20T00:30:53.968Z,18.4
2023-11-20T00:31:56.066Z,18.3
2023-11-20T00:32:58.153Z,18.4
2023-11-20T00:34:00.264Z,18.4
2023-11-20T00:35:02.328Z,18.4
2023-11-20T00:36:04.100Z,18.4
2023-11-20T00:37:06.181Z,18.4
2023-11-20T00:38:08.428Z,18.4
2023-11-20T00:39:10.207Z,18.4
2023-11-20T00:40:12.017Z,18.4
2023-11-20T00:41:14.000Z,18.4
2023-11-20T00:42:15.795Z,18.4
2023-11-20T00:43:17.661Z,18.3
2023-11-20T00:44:19.477Z,18.4
2023-11-20T00:45:21.330Z,18.4
2023-11-20T00:46:23.444Z,18.3
2023-11-20T00:47:26.009Z,18.4
2023-11-20T00:48:28.109Z,18.4
2023-11-20T00:49:30.102Z,18.4
2023-11-20T00:50:31.920Z,18.4
2023-11-20T00:51:33.724Z,18.4
2023-11-20T00:52:35.841Z,18.4
2023-11-20T00:53:37.586Z,18.4
2023-11-20T00:54:39.556Z,18.4
2023-11-20T00:55:41.795Z,18.3
2023-11-20T00:56:43.610Z,18.3
2023-11-20T00:57:45.397Z,18.3
2023-11-20T00:58:47.475Z,18.4
2023-11-20T00:59:49.224Z,18.4
2023-11-20T01:00:51.141Z,18.3
2023-11-20T01:01:53.402Z,18.3
2023-11-20T01:02:55.582Z,18.3
2023-11-20T01:03:57.956Z,18.3
2023-11-20T01:05:00.293Z,18.3
2023-11-20T01:06:02.099Z,18.3
2023-11-20T01:07:04.095Z,18.3
2023-11-20T01:08:05.990Z,18.3
2023-11-20T01:09:10.166Z,18.3
2023-11-20T01:10:12.122Z,18.3
2023-11-20T01:11:14.100Z,18.3
2023-11-20T01:12:15.873Z,18.3
2023-11-20T01:13:17.678Z,18.3
2023-11-20T01:14:19.661Z,18.3
2023-11-20T01:15:21.597Z,18.3
2023-11-20T01:16:23.407Z,18.3
2023-11-20T01:17:25.470Z,18.3
2023-11-20T01:18:27.790Z,18.3
2023-11-20T01:19:29.876Z,18.3
2023-11-20T01:20:31.675Z,18.3
2023-11-20T01:21:33.506Z,18.3
2023-11-20T01:22:35.425Z,18.3
2023-11-20T01:23:37.199Z,18.3
2023-11-20T01:24:39.024Z,18.3
2023-11-20T01:25:40.969Z,18.3
2023-11-20T01:26:42.785Z,18.3
2023-11-20T01:27:44.683Z,18.3
2023-11-20T01:28:46.613Z,18.3
2023-11-20T01:29:48.484Z,18.3
2023-11-20T01:30:50.381Z,18.3
2023-11-20T01:31:52.426Z,18.3
2023-11-20T01:32:54.436Z,18.3
2023-11-20T01:33:56.541Z,18.3
2023-11-20T01:34:58.401Z,18.3
2023-11-20T01:36:00.206Z,18.3
2023-11-20T01:37:02.156Z,18.4
2023-11-20T01:38:04.314Z,18.4
2023-11-20T01:39:06.085Z,18.3
2023-11-20T01:40:07.981Z,18.3
2023-11-20T01:41:09.891Z,18.3
2023-11-20T01:42:11.740Z,18.3
2023-11-20T01:43:13.636Z,18.3
2023-11-20T01:44:15.442Z,18.3
2023-11-20T01:45:17.362Z,18.3
2023-11-20T01:46:19.525Z,18.3
2023-11-20T01:47:21.860Z,18.3
2023-11-20T01:48:23.605Z,18.3
2023-11-20T01:49:25.335Z,18.3
2023-11-20T01:50:27.110Z,18.3
2023-11-20T01:51:29.175Z,18.3
2023-11-20T01:52:31.214Z,18.3
2023-11-20T01:53:32.961Z,18.3
2023-11-20T01:54:34.771Z,18.3
2023-11-20T01:55:36.693Z,18.3
2023-11-20T01:56:38.443Z,18.3
2023-11-20T01:57:40.224Z,18.3
2023-11-20T01:58:42.223Z,18.3
2023-11-20T01:59:44.016Z,18.3
2023-11-20T02:00:45.974Z,18.3
2023-11-20T02:01:48.007Z,18.3
2023-11-20T02:02:50.102Z,18.3
2023-11-20T02:03:52.546Z,18.3
2023-11-20T02:04:54.730Z,18.3
2023-11-20T02:05:56.541Z,18.3
2023-11-20T02:06:58.389Z,18.3
2023-11-20T02:08:00.420Z,18.3
2023-11-20T02:09:02.141Z,18.3
2023-11-20T02:10:04.137Z,18.3
2023-11-20T02:11:08.740Z,18.3
2023-11-20T02:12:10.591Z,18.3
2023-11-20T02:13:12.566Z,18.3
2023-11-20T02:14:14.545Z,18.3
2023-11-20T02:15:16.289Z,18.3
2023-11-20T02:16:18.147Z,18.3
2023-11-20T02:17:20.129Z,18.3
2023-11-20T02:18:22.184Z,18.3
2023-11-20T02:19:23.949Z,18.3
2023-11-20T02:20:25.790Z,18.2
2023-11-20T02:21:27.554Z,18.2
2023-11-20T02:22:29.349Z,18.3
2023-11-20T02:23:31.113Z,18.3
2023-11-20T02:24:32.991Z,18.2
2023-11-20T02:25:34.877Z,18.2
2023-11-20T02:26:36.651Z,18.3
2023-11-20T02:27:38.561Z,18.3
2023-11-20T02:28:40.389Z,18.2
2023-11-20T02:29:44.980Z,18.3
2023-11-20T02:30:46.818Z,18.3
2023-11-20T02:31:49.085Z,18.3
2023-11-20T02:32:51.147Z,18.4
2023-11-20T02:33:52.982Z,18.3
2023-11-20T02:34:55.061Z,18.3
2023-11-20T02:35:56.816Z,18.3
2023-11-20T02:36:58.586Z,18.4
2023-11-20T02:38:00.855Z,18.3
2023-11-20T02:39:02.658Z,18.3
2023-11-20T02:40:04.515Z,18.3
2023-11-20T02:41:06.421Z,18.2
2023-11-20T02:42:08.134Z,18.2
2023-11-20T02:43:09.950Z,18.3
2023-11-20T02:44:11.874Z,18.3
2023-11-20T02:45:13.656Z,18.3
2023-11-20T02:46:15.778Z,18.3
2023-11-20T02:47:17.878Z,18.3
2023-11-20T02:48:20.051Z,18.3
2023-11-20T02:49:21.869Z,18.3
2023-11-20T02:50:23.674Z,18.3
2023-11-20T02:51:25.423Z,18.3
2023-11-20T02:52:27.197Z,18.3
2023-11-20T02:53:28.986Z,18.3
2023-11-20T02:54:30.923Z,18.3
2023-11-20T02:55:33.075Z,18.3
2023-11-20T02:56:34.859Z,18.3
2023-11-20T02:57:36.665Z,18.3
2023-11-20T02:58:38.800Z,18.4
2023-11-20T02:59:40.525Z,18.3
2023-11-20T03:00:42.468Z,18.4
2023-11-20T03:01:44.742Z,18.3
2023-11-20T03:02:46.949Z,18.3
2023-11-20T03:03:49.571Z,18.3
2023-11-20T03:04:52.092Z,18.3
2023-11-20T03:05:53.927Z,18.3
2023-11-20T03:06:55.802Z,18.3
2023-11-20T03:07:57.816Z,18.3
2023-11-20T03:08:59.573Z,18.3
2023-11-20T03:10:01.475Z,18.4
2023-11-20T03:11:03.703Z,18.4
2023-11-20T03:12:05.520Z,18.4
2023-11-20T03:13:07.342Z,18.3
2023-11-20T03:14:09.440Z,18.4
2023-11-20T03:15:11.196Z,18.3
2023-11-20T03:16:13.533Z,18.4
2023-11-20T03:17:16.307Z,18.3
2023-11-20T03:18:18.781Z,18.3
2023-11-20T03:19:20.868Z,18.3
2023-11-20T03:20:22.716Z,18.3
2023-11-20T03:21:24.448Z,18.3
2023-11-20T03:22:26.247Z,18.3
2023-11-20T03:23:27.953Z,18.4
2023-11-20T03:24:29.733Z,18.4
2023-11-20T03:25:31.501Z,18.4
2023-11-20T03:26:33.253Z,18.4
2023-11-20T03:27:35.047Z,18.4
2023-11-20T03:28:37.005Z,18.4
2023-11-20T03:29:38.846Z,18.4
2023-11-20T03:30:40.745Z,18.4
2023-11-20T03:31:42.705Z,18.4
2023-11-20T03:32:44.834Z,18.4
2023-11-20T03:33:46.767Z,18.4
2023-11-20T03:34:48.801Z,18.5
2023-11-20T03:35:50.633Z,18.4
2023-11-20T03:36:52.436Z,18.5
2023-11-20T03:37:54.553Z,18.4
2023-11-20T03:38:56.365Z,18.4
2023-11-20T03:39:58.117Z,18.4
2023-11-20T03:41:00.054Z,18.4
2023-11-20T03:42:01.802Z,18.4
2023-11-20T03:43:03.688Z,18.4
2023-11-20T03:44:05.499Z,18.4
2023-11-20T03:45:07.264Z,18.4
2023-11-20T03:46:09.323Z,18.4
2023-11-20T03:47:11.403Z,18.4
2023-11-20T03:48:13.259Z,18.4
2023-11-20T03:49:15.076Z,18.4
2023-11-20T03:50:16.877Z,18.4
2023-11-20T03:51:18.700Z,18.4
2023-11-20T03:52:20.459Z,18.4
2023-11-20T03:53:22.204Z,18.4
2023-11-20T03:54:23.950Z,18.4
2023-11-20T03:55:25.785Z,18.4
2023-11-20T03:56:27.606Z,18.4
2023-11-20T03:57:29.613Z,18.4
2023-11-20T03:58:31.402Z,18.4
2023-11-20T03:59:35.420Z,18.4
2023-11-20T04:00:37.286Z,18.4
2023-11-20T04:01:39.395Z,18.4
2023-11-20T04:02:41.453Z,18.3
2023-11-20T04:03:43.707Z,18.4
2023-11-20T04:04:46.041Z,18.4
2023-11-20T04:05:48.370Z,18.4
2023-11-20T04:06:50.209Z,18.4
2023-11-20T04:07:52.135Z,18.4
2023-11-20T04:08:53.888Z,18.4
2023-11-20T04:09:55.847Z,18.4
2023-11-20T04:10:57.873Z,18.4
2023-11-20T04:11:59.654Z,18.4
2023-11-20T04:13:01.655Z,18.4
2023-11-20T04:14:03.603Z,18.4
2023-11-20T04:15:05.630Z,18.4
2023-11-20T04:16:07.779Z,18.4
2023-11-20T04:17:11.434Z,18.4
2023-11-20T04:18:15.200Z,18.2
2023-11-20T04:19:18.677Z,18.4
2023-11-20T04:20:22.049Z,18.4
2023-11-20T04:21:25.778Z,18.4
2023-11-20T04:22:28.788Z,18.4
2023-11-20T04:23:30.546Z,18.3
2023-11-20T04:24:32.329Z,18.2
2023-11-20T04:25:34.091Z,18.3
2023-11-20T04:26:35.877Z,18.4
2023-11-20T04:27:37.693Z,18.4
2023-11-20T04:28:39.558Z,18.3
2023-11-20T04:29:41.345Z,18.4
2023-11-20T04:30:43.505Z,18.5
2023-11-20T04:31:46.120Z,18.4
2023-11-20T04:32:48.465Z,18.3
2023-11-20T04:33:50.560Z,18.3
2023-11-20T04:34:52.404Z,18.4
2023-11-20T04:35:54.218Z,18.5
2023-11-20T04:36:56.024Z,18.5
2023-11-20T04:37:57.843Z,18.5
2023-11-20T04:38:59.637Z,18.5
2023-11-20T04:40:01.486Z,18.3
2023-11-20T04:41:03.708Z,18.2
2023-11-20T04:42:05.493Z,18.5
2023-11-20T04:43:07.303Z,18.4
2023-11-20T04:44:09.351Z,18.5
2023-11-20T04:45:11.193Z,18.5
2023-11-20T04:46:13.790Z,18.4
2023-11-20T04:47:16.448Z,18.3
2023-11-20T04:48:18.230Z,18.3
2023-11-20T04:49:19.956Z,18.2
2023-11-20T04:50:21.778Z,18.3
2023-11-20T04:51:23.849Z,18.3
2023-11-20T04:52:28.233Z,18.3
2023-11-20T04:53:29.990Z,18.3
2023-11-20T04:54:31.727Z,18.4
2023-11-20T04:55:33.477Z,18.3
2023-11-20T04:56:35.333Z,18.3
2023-11-20T04:57:37.225Z,18.4
2023-11-20T04:58:39.696Z,18.1
2023-11-20T04:59:41.814Z,18
2023-11-20T05:00:43.982Z,18
2023-11-20T05:01:46.461Z,18.1
2023-11-20T05:02:48.968Z,18.1
2023-11-20T05:03:51.227Z,18.3
2023-11-20T05:04:53.387Z,18.3
2023-11-20T05:05:55.133Z,18.3
2023-11-20T05:06:57.136Z,18.3
2023-11-20T05:07:59.172Z,18.3
2023-11-20T05:09:00.985Z,18.3
2023-11-20T05:10:03.017Z,18.3
2023-11-20T05:11:05.142Z,18.3
2023-11-20T05:12:06.906Z,18.3
2023-11-20T05:13:08.723Z,18.3
2023-11-20T05:14:10.498Z,18.3
2023-11-20T05:15:12.289Z,18.3
2023-11-20T05:16:14.154Z,18.3
2023-11-20T05:17:16.126Z,18.2
2023-11-20T05:18:17.888Z,18.2
2023-11-20T05:19:19.732Z,18.2
2023-11-20T05:20:21.534Z,18.2
2023-11-20T05:21:23.332Z,18.3
2023-11-20T05:22:25.130Z,18.3
2023-11-20T05:23:26.966Z,18.3
2023-11-20T05:24:28.754Z,18.5
2023-11-20T05:25:30.509Z,18.5
2023-11-20T05:26:32.264Z,18.5
2023-11-20T05:27:34.027Z,18.5
2023-11-20T05:28:35.839Z,18.5
2023-11-20T05:29:37.569Z,18.4
2023-11-20T05:30:39.510Z,18.4
2023-11-20T05:31:42.387Z,18.4
2023-11-20T05:32:44.665Z,18.4
2023-11-20T05:33:46.680Z,18.4
2023-11-20T05:34:48.590Z,18.4
2023-11-20T05:35:50.355Z,18.4
2023-11-20T05:36:52.157Z,18.4
2023-11-20T05:37:54.112Z,18.4
2023-11-20T05:38:56.102Z,18.4
2023-11-20T05:39:58.059Z,18.4
2023-11-20T05:41:00.057Z,18.4
2023-11-20T05:42:01.825Z,18.5
2023-11-20T05:43:03.656Z,18.5
2023-11-20T05:44:05.813Z,18.5
2023-11-20T05:45:07.675Z,18.5
2023-11-20T05:46:09.718Z,18.5
2023-11-20T05:47:11.998Z,18.5
2023-11-20T05:48:13.853Z,18.5
2023-11-20T05:49:15.919Z,18.5
2023-11-20T05:50:17.738Z,18.7
2023-11-20T05:51:19.576Z,18.9
2023-11-20T05:52:21.367Z,18.7
2023-11-20T05:53:23.287Z,18.7
2023-11-20T05:54:25.088Z,18.6
2023-11-20T05:55:26.848Z,18.6
2023-11-20T05:56:28.609Z,18.6
2023-11-20T05:57:30.317Z,18.6
2023-11-20T05:58:32.069Z,18.6
2023-11-20T05:59:33.816Z,18.6
2023-11-20T06:00:35.670Z,18.7
2023-11-20T06:01:37.670Z,18.7
2023-11-20T06:02:40.076Z,18.7
2023-11-20T06:03:42.401Z,18.7
2023-11-20T06:04:44.536Z,18.7
2023-11-20T06:05:46.482Z,18.7
2023-11-20T06:06:48.359Z,18.8
2023-11-20T06:07:50.217Z,18.8
2023-11-20T06:08:52.368Z,18.8
2023-11-20T06:09:54.293Z,18.8
2023-11-20T06:10:56.249Z,18.8
2023-11-20T06:11:57.988Z,18.8
2023-11-20T06:12:59.946Z,18.7
2023-11-20T06:14:01.912Z,18.7
2023-11-20T06:15:03.881Z,18.7
2023-11-20T06:16:05.903Z,18.6
2023-11-20T06:17:07.973Z,18.6
2023-11-20T06:18:09.914Z,18.6
2023-11-20T06:19:11.873Z,18.7
2023-11-20T06:20:13.789Z,18.6
2023-11-20T06:21:15.576Z,18.6
2023-11-20T06:22:17.663Z,18.6
2023-11-20T06:23:20.052Z,18.6
2023-11-20T06:24:21.859Z,18.6
2023-11-20T06:25:23.582Z,18.6
2023-11-20T06:26:25.358Z,18.6
2023-11-20T06:27:27.135Z,18.5
2023-11-20T06:28:28.916Z,18.6
2023-11-20T06:29:30.679Z,18.6
2023-11-20T06:30:32.531Z,18.7
2023-11-20T06:31:34.478Z,18.6
2023-11-20T06:32:36.819Z,18.6
2023-11-20T06:33:38.721Z,18.6
2023-11-20T06:34:40.704Z,18.6
2023-11-20T06:35:42.428Z,18.7
2023-11-20T06:36:44.280Z,18.8
2023-11-20T06:37:46.108Z,18.8
2023-11-20T06:38:47.867Z,18.8
2023-11-20T06:39:49.925Z,18.7
2023-11-20T06:40:51.855Z,18.7
2023-11-20T06:41:53.694Z,18.7
2023-11-20T06:42:55.640Z,18.7
2023-11-20T06:43:57.495Z,18.8
2023-11-20T06:44:59.594Z,18.9
2023-11-20T06:46:02.125Z,19.2
2023-11-20T06:47:04.271Z,19
2023-11-20T06:48:06.190Z,18.8
2023-11-20T06:49:08.329Z,18.8
2023-11-20T06:50:10.422Z,18.7
2023-11-20T06:51:12.286Z,18.7
2023-11-20T06:52:14.230Z,18.9
2023-11-20T06:53:16.059Z,18.9
2023-11-20T06:54:17.806Z,19
2023-11-20T06:55:19.876Z,18.8
2023-11-20T06:56:21.948Z,18.8
2023-11-20T06:57:23.765Z,18.9
2023-11-20T06:58:25.527Z,18.9
2023-11-20T06:59:27.299Z,18.8
2023-11-20T07:00:29.124Z,18.6
2023-11-20T07:01:30.967Z,18.7
2023-11-20T07:02:32.922Z,18.8
2023-11-20T07:03:35.250Z,18.5
2023-11-20T07:04:37.609Z,18.5
2023-11-20T07:05:39.844Z,18.5
2023-11-20T07:06:41.701Z,18.6
2023-11-20T07:07:43.722Z,18.5
2023-11-20T07:08:45.562Z,18.6
2023-11-20T07:09:47.382Z,18.5
2023-11-20T07:10:49.408Z,18.5
2023-11-20T07:11:51.343Z,18.7
2023-11-20T07:12:53.268Z,18.8
2023-11-20T07:13:55.538Z,18.8
2023-11-20T07:14:57.341Z,18.7
2023-11-20T07:15:59.215Z,18.6
2023-11-20T07:17:01.538Z,18.6
2023-11-20T07:18:03.979Z,18.6
2023-11-20T07:19:06.057Z,18.6
2023-11-20T07:20:07.912Z,18.6
2023-11-20T07:21:09.679Z,18.6
2023-11-20T07:22:11.758Z,18.6
2023-11-20T07:23:13.734Z,18.6
2023-11-20T07:24:15.525Z,18.6
2023-11-20T07:25:17.477Z,18.6
2023-11-20T07:26:19.850Z,18.6
2023-11-20T07:27:21.653Z,18.5
2023-11-20T07:28:23.548Z,18.5
2023-11-20T07:29:25.637Z,18.7
2023-11-20T07:30:27.440Z,18.6
2023-11-20T07:31:29.439Z,18.6
2023-11-20T07:32:31.964Z,18.6
2023-11-20T07:33:33.842Z,18.7
2023-11-20T07:34:35.616Z,18.6
2023-11-20T07:35:37.349Z,18.6
2023-11-20T07:36:39.270Z,18.6
2023-11-20T07:37:41.239Z,18.6
2023-11-20T07:38:43.003Z,18.6
2023-11-20T07:39:44.848Z,18.7
2023-11-20T07:40:46.738Z,18.8
2023-11-20T07:41:48.800Z,18.9
2023-11-20T07:42:51.177Z,18.8
2023-11-20T07:43:53.026Z,18.8
2023-11-20T07:44:54.975Z,18.9
2023-11-20T07:45:56.937Z,18.9
2023-11-20T07:46:59.416Z,18.9
2023-11-20T07:48:02.369Z,18.7
2023-11-20T07:49:04.465Z,18.6
2023-11-20T07:50:06.311Z,18.7
2023-11-20T07:51:08.200Z,18.9
2023-11-20T07:52:10.235Z,19
2023-11-20T07:53:12.381Z,19.1
2023-11-20T07:54:14.105Z,18.9
2023-11-20T07:55:15.988Z,18.9
2023-11-20T07:56:17.892Z,19
2023-11-20T07:57:19.717Z,18.9
2023-11-20T07:58:21.697Z,19
2023-11-20T07:59:23.856Z,19
2023-11-20T08:00:25.655Z,19
2023-11-20T08:01:27.443Z,19.2
2023-11-20T08:02:29.412Z,19
2023-11-20T08:03:31.244Z,19
2023-11-20T08:04:33.365Z,19
2023-11-20T08:05:49.503Z,19.2
2023-11-20T08:06:53.132Z,19.2
2023-11-20T08:07:55.318Z,19.5
2023-11-20T08:08:57.148Z,19.2
2023-11-20T08:09:58.992Z,19.3
2023-11-20T08:11:00.897Z,19.5
2023-11-20T08:12:02.657Z,19.2
2023-11-20T08:13:04.708Z,19.6
2023-11-20T08:14:06.978Z,19.6
2023-11-20T08:15:08.932Z,19.5
2023-11-20T08:16:10.888Z,19.7
2023-11-20T08:17:19.044Z,19.7
2023-11-20T08:18:21.320Z,19.7
2023-11-20T08:19:23.108Z,19.8
2023-11-20T08:20:27.740Z,19.6
2023-11-20T08:21:29.474Z,19.7
2023-11-20T08:22:35.971Z,19.7
2023-11-20T08:23:38.125Z,19.8
2023-11-20T08:24:40.218Z,19.7
2023-11-20T08:25:42.552Z,19.9
2023-11-20T08:26:44.273Z,19.7
2023-11-20T08:27:46.089Z,19.7
2023-11-20T08:28:48.143Z,19.7
2023-11-20T08:29:49.976Z,19.7
2023-11-20T08:30:51.790Z,19.6
2023-11-20T08:31:53.730Z,19.7
2023-11-20T08:32:55.728Z,19.7
2023-11-20T08:33:57.799Z,19.8
2023-11-20T08:35:00.045Z,19.6
2023-11-20T08:36:01.913Z,19.9
2023-11-20T08:37:04.015Z,19.9
2023-11-20T08:38:06.815Z,20.1
2023-11-20T08:39:08.977Z,20.2
2023-11-20T08:40:11.432Z,20.1
2023-11-20T08:41:13.486Z,20.2
2023-11-20T08:42:15.299Z,20.3
2023-11-20T08:43:17.339Z,20.2
2023-11-20T08:44:19.491Z,20.5
2023-11-20T08:45:21.395Z,20.4
2023-11-20T08:46:23.551Z,20.3
2023-11-20T08:47:26.307Z,20.5
2023-11-20T08:48:28.478Z,20.2
2023-11-20T08:49:30.505Z,20.3
2023-11-20T08:50:32.287Z,20.4
2023-11-20T08:51:34.169Z,20.1
2023-11-20T08:52:36.084Z,20.4
2023-11-20T08:53:37.973Z,20.3
2023-11-20T08:54:39.701Z,20.1
2023-11-20T08:55:41.619Z,20.3
2023-11-20T08:56:43.440Z,20.2
2023-11-20T08:57:45.369Z,20.1
2023-11-20T08:58:47.295Z,20.1
2023-11-20T08:59:49.236Z,20.2
2023-11-20T09:00:51.325Z,20.2
2023-11-20T09:01:53.485Z,20.1
2023-11-20T09:02:55.720Z,20.2
2023-11-20T09:03:57.806Z,20.4
2023-11-20T09:05:00.039Z,20.2
2023-11-20T09:06:01.954Z,20.2
2023-11-20T09:07:04.012Z,20.3
2023-11-20T09:08:05.881Z,20.2
2023-11-20T09:09:07.672Z,20.2
2023-11-20T09:10:09.599Z,20.3
2023-11-20T09:11:11.721Z,20.2
2023-11-20T09:12:13.500Z,20.2
2023-11-20T09:13:15.447Z,20.2
2023-11-20T09:14:17.607Z,20.2
2023-11-20T09:15:19.565Z,20.2
2023-11-20T09:16:21.695Z,20.2
2023-11-20T09:17:24.294Z,20.1
2023-11-20T09:18:26.069Z,20
2023-11-20T09:19:28.027Z,19.8
2023-11-20T09:20:29.788Z,19.9
2023-11-20T09:21:31.620Z,19.8
2023-11-20T09:22:33.377Z,20
2023-11-20T09:23:35.121Z,20.1
2023-11-20T09:24:36.852Z,20.1
2023-11-20T09:25:38.903Z,20.1
2023-11-20T09:26:41.206Z,19.9
2023-11-20T09:27:42.982Z,20
2023-11-20T09:28:45.077Z,20.1
2023-11-20T09:29:47.306Z,20.2
2023-11-20T09:30:49.303Z,20.2
2023-11-20T09:31:51.357Z,20.2
2023-11-20T09:32:53.282Z,20.1
2023-11-20T09:33:55.178Z,20
2023-11-20T09:34:57.004Z,20.1
2023-11-20T09:35:58.790Z,19.9
2023-11-20T09:37:00.655Z,19.9
2023-11-20T09:38:02.555Z,20
2023-11-20T09:39:04.300Z,20
2023-11-20T09:40:06.330Z,20
2023-11-20T09:41:08.350Z,19.8
2023-11-20T09:42:10.590Z,20.2
2023-11-20T09:43:12.581Z,20.1
2023-11-20T09:44:14.542Z,19.9
2023-11-20T09:45:16.304Z,20
2023-11-20T09:46:18.291Z,20
2023-11-20T09:47:20.497Z,19.9
2023-11-20T09:48:22.762Z,20
2023-11-20T09:49:24.926Z,20.1
2023-11-20T09:50:26.989Z,20
2023-11-20T09:51:28.743Z,20.1
2023-11-20T09:52:30.493Z,20.1
2023-11-20T09:53:32.271Z,19.9
2023-11-20T09:54:36.311Z,20
2023-11-20T09:55:38.052Z,20
2023-11-20T09:56:39.851Z,20
2023-11-20T09:57:41.581Z,20
2023-11-20T09:58:43.375Z,20
2023-11-20T09:59:45.190Z,19.9
2023-11-20T10:00:46.977Z,19.9
2023-11-20T10:01:49.070Z,19.8
2023-11-20T10:02:51.304Z,19.8
2023-11-20T10:03:53.620Z,20
2023-11-20T10:04:55.724Z,20
2023-11-20T10:05:57.567Z,20.1
2023-11-20T10:06:59.506Z,20.1
2023-11-20T10:08:01.337Z,19.7
2023-11-20T10:09:03.095Z,19.7
2023-11-20T10:10:05.276Z,19.5
2023-11-20T10:11:07.137Z,19.5
2023-11-20T10:12:08.919Z,19.4
2023-11-20T10:13:10.953Z,19.3
2023-11-20T10:14:12.757Z,19.3
2023-11-20T10:15:14.481Z,19.3
2023-11-20T10:16:16.592Z,19.2
2023-11-20T10:17:18.815Z,19.3
2023-11-20T10:18:21.376Z,19.5
2023-11-20T10:19:23.258Z,19.5
2023-11-20T10:20:25.347Z,19.4
2023-11-20T10:21:27.080Z,19.6
2023-11-20T10:22:28.889Z,19.6
2023-11-20T10:23:34.997Z,19.5
2023-11-20T10:24:37.295Z,19.8
2023-11-20T10:25:39.094Z,19.5
2023-11-20T10:26:40.861Z,19.5
2023-11-20T10:27:42.661Z,19.5
2023-11-20T10:28:44.420Z,19.5
2023-11-20T10:29:46.214Z,19.5
2023-11-20T10:30:48.165Z,19.4
2023-11-20T10:31:50.687Z,19.3
2023-11-20T10:32:54.035Z,19.4
2023-11-20T10:33:56.160Z,19.4
2023-11-20T10:34:58.028Z,19.4
2023-11-20T10:36:03.569Z,19.3
2023-11-20T10:37:05.859Z,19.3
2023-11-20T10:38:08.038Z,19.4
2023-11-20T10:39:10.394Z,19.5
2023-11-20T10:40:12.216Z,19.6
2023-11-20T10:41:14.171Z,19.4
2023-11-20T10:42:15.905Z,19.5
2023-11-20T10:43:17.736Z,19.6
2023-11-20T10:44:20.072Z,19.6
2023-11-20T10:45:21.845Z,19.6
2023-11-20T10:46:23.657Z,19.7
2023-11-20T10:47:25.609Z,19.4
2023-11-20T10:48:27.749Z,19.5
2023-11-20T10:49:30.023Z,19.4
2023-11-20T10:50:31.901Z,19.3
2023-11-20T10:51:33.675Z,19.4
2023-11-20T10:52:35.404Z,19.3
2023-11-20T10:53:37.213Z,19.5
2023-11-20T10:54:39.080Z,19.4
2023-11-20T10:55:40.925Z,19.3
2023-11-20T10:56:42.866Z,19.3
2023-11-20T10:57:44.659Z,19.4
2023-11-20T10:58:46.540Z,19.3
2023-11-20T10:59:48.269Z,19.3
2023-11-20T11:00:50.264Z,19.3
2023-11-20T11:01:52.881Z,19.3
2023-11-20T11:03:14.377Z,19.3
2023-11-20T11:04:21.227Z,19.2
2023-11-20T11:05:26.076Z,19.2
2023-11-20T11:06:27.874Z,19.5
2023-11-20T11:07:29.930Z,19.5
2023-11-20T11:08:31.872Z,19.7
2023-11-20T11:09:33.651Z,19.6
2023-11-20T11:10:35.535Z,19.7
2023-11-20T11:11:37.554Z,19.6
2023-11-20T11:12:41.717Z,19.8
2023-11-20T11:13:43.584Z,19.8
2023-11-20T11:14:45.330Z,19.5
2023-11-20T11:15:47.312Z,19.6
2023-11-20T11:16:49.225Z,19.7
2023-11-20T11:17:51.194Z,19.8
2023-11-20T11:18:53.650Z,19.9
2023-11-20T11:19:55.985Z,20
2023-11-20T11:20:57.746Z,20
2023-11-20T11:21:59.545Z,19.9
2023-11-20T11:23:01.327Z,20
2023-11-20T11:24:03.122Z,20.1
2023-11-20T11:25:05.026Z,20
2023-11-20T11:26:07.230Z,20.1
2023-11-20T11:27:08.976Z,20
2023-11-20T11:28:10.977Z,20
2023-11-20T11:29:12.894Z,20
2023-11-20T11:30:14.644Z,19.9
2023-11-20T11:31:19.359Z,20
2023-11-20T11:32:21.519Z,19.9
2023-11-20T11:33:23.304Z,20.1
2023-11-20T11:34:25.322Z,20.1
2023-11-20T11:35:27.544Z,20.1
2023-11-20T11:36:29.373Z,20
2023-11-20T11:37:31.279Z,20.1
2023-11-20T11:38:33.423Z,20.3
2023-11-20T11:39:35.234Z,20.4
2023-11-20T11:40:36.968Z,20.4
2023-11-20T11:41:38.737Z,20.3
2023-11-20T11:42:40.540Z,20.4
2023-11-20T11:43:42.286Z,20.3
2023-11-20T11:44:48.306Z,20.3
2023-11-20T11:45:50.941Z,20.2
2023-11-20T11:46:52.873Z,20.3
2023-11-20T11:47:59.932Z,20.5
2023-11-20T11:49:01.866Z,20.7
2023-11-20T11:50:08.212Z,20.6
2023-11-20T11:51:10.990Z,20.4
2023-11-20T11:52:12.953Z,20.4
2023-11-20T11:53:14.937Z,20.3
2023-11-20T11:54:16.696Z,20.3
2023-11-20T11:55:18.631Z,20.4
2023-11-20T11:56:20.975Z,20.4
2023-11-20T11:57:22.750Z,20.4
2023-11-20T11:58:24.557Z,20.4
2023-11-20T11:59:26.453Z,20.4
2023-11-20T12:00:28.431Z,20.6
2023-11-20T12:01:30.197Z,21
2023-11-20T12:02:32.045Z,21
2023-11-20T12:03:34.004Z,20.8
2023-11-20T12:04:36.617Z,20.7
2023-11-20T12:05:38.923Z,20.7
2023-11-20T12:06:40.951Z,20.6
2023-11-20T12:07:42.785Z,20.6
2023-11-20T12:08:44.538Z,20.7
2023-11-20T12:09:46.250Z,20.8
2023-11-20T12:10:48.083Z,21
2023-11-20T12:11:49.820Z,20.8
2023-11-20T12:12:52.046Z,21.1
2023-11-20T12:13:54.293Z,20.8
2023-11-20T12:14:56.010Z,20.7
2023-11-20T12:15:58.359Z,20.7
2023-11-20T12:17:00.803Z,20.7
2023-11-20T12:18:03.891Z,20.8
2023-11-20T12:19:06.271Z,21
2023-11-20T12:20:08.116Z,20.9
2023-11-20T12:21:10.012Z,21
2023-11-20T12:22:12.077Z,21.1
2023-11-20T12:23:14.188Z,20.9
2023-11-20T12:24:16.050Z,21.1
2023-11-20T12:25:18.017Z,21.1
2023-11-20T12:26:20.076Z,21.1
2023-11-20T12:27:21.917Z,20.7
2023-11-20T12:28:23.936Z,20.9
2023-11-20T12:29:26.124Z,21
2023-11-20T12:30:27.907Z,21
2023-11-20T12:31:29.970Z,21
2023-11-20T12:32:32.304Z,21
2023-11-20T12:33:34.452Z,21
2023-11-20T12:34:36.217Z,21.2
2023-11-20T12:35:38.107Z,21.4
2023-11-20T12:36:39.844Z,21.2
2023-11-20T12:37:41.742Z,21.2
2023-11-20T12:38:43.546Z,21.2
2023-11-20T12:39:45.317Z,21.3
2023-11-20T12:40:47.052Z,21.2
2023-11-20T12:41:48.870Z,21.2
2023-11-20T12:42:50.783Z,21.2
2023-11-20T12:43:52.711Z,21.2
2023-11-20T12:44:54.523Z,21.2
2023-11-20T12:45:56.573Z,21.2
2023-11-20T12:46:59.007Z,21.3
2023-11-20T12:48:01.169Z,21.3
2023-11-20T12:49:03.293Z,21.1
2023-11-20T12:50:05.222Z,21.2
2023-11-20T12:51:06.972Z,21.2
2023-11-20T12:52:10.868Z,21.2
2023-11-20T12:53:13.048Z,20.9
2023-11-20T12:54:14.908Z,21
2023-11-20T12:55:16.965Z,21.1
2023-11-20T12:56:19.009Z,21.2
2023-11-20T12:57:20.885Z,21.2
2023-11-20T12:58:22.855Z,21.2
2023-11-20T12:59:24.903Z,21.2
2023-11-20T13:00:26.686Z,21.3
2023-11-20T13:01:28.598Z,21.4
2023-11-20T13:02:30.770Z,21.6
2023-11-20T13:03:33.368Z,21.5
2023-11-20T13:04:35.744Z,21.4
2023-11-20T13:05:38.091Z,21.5
2023-11-20T13:06:40.067Z,21.4
2023-11-20T13:07:43.975Z,21.3
2023-11-20T13:08:45.849Z,21.1
2023-11-20T13:09:47.708Z,21.3
2023-11-20T13:10:49.574Z,21.3
2023-11-20T13:11:51.414Z,21.3
2023-11-20T13:12:53.231Z,21.3
2023-11-20T13:13:55.070Z,21.3
2023-11-20T13:14:56.818Z,21.3
2023-11-20T13:16:01.063Z,21.3
2023-11-20T13:17:04.069Z,21.3
2023-11-20T13:18:06.206Z,21.3
2023-11-20T13:19:08.344Z,21.4
2023-11-20T13:20:10.404Z,21.3
2023-11-20T13:21:12.189Z,21.3
2023-11-20T13:22:14.053Z,21.3
2023-11-20T13:23:16.090Z,21.2
2023-11-20T13:24:17.898Z,21.2
2023-11-20T13:25:19.689Z,21.4
2023-11-20T13:26:21.476Z,21.3
2023-11-20T13:27:23.322Z,21.2
2023-11-20T13:28:25.368Z,21.4
2023-11-20T13:29:27.418Z,21.4
2023-11-20T13:30:29.148Z,21.4
2023-11-20T13:31:31.078Z,21.4
2023-11-20T13:32:33.212Z,21.4
2023-11-20T13:33:35.026Z,21.4
2023-11-20T13:34:36.908Z,21.4
2023-11-20T13:35:38.840Z,21.4
2023-11-20T13:36:40.620Z,21.4
2023-11-20T13:37:42.416Z,21.4
2023-11-20T13:38:44.527Z,21.3
2023-11-20T13:39:46.379Z,21.3
2023-11-20T13:40:48.404Z,21.3
2023-11-20T13:41:50.284Z,21.3
2023-11-20T13:42:52.153Z,21.3
2023-11-20T13:43:54.153Z,21.3
2023-11-20T13:44:55.912Z,21.3
2023-11-20T13:45:58.050Z,21.3
2023-11-20T13:47:00.426Z,21.3
2023-11-20T13:48:02.910Z,21.3
2023-11-20T13:49:04.887Z,21.2
2023-11-20T13:50:06.988Z,21.2